Time;durP1;ratioP1;P1;durP2;ratioP2;P2;SDS_P1;SDS_P2;PMS_P1;PMS_P2;Temp;Humidity;BMP_temperature;BMP_pressure;BME280_temperature;BME280_humidity;BME280_pressure;Samples;Min_cycle;Max_cycle;Signal;HPM_P1;HPM_P2
2023/12/31 00:01:35;;;;;;;3.30;1.00;;;10.30;99.90;;;;;;5117165;28;20575;-59
2023/12/31 00:04:02;;;;;;;2.55;1.38;;;10.30;99.90;;;;;;5116904;28;20629;-59
2023/12/31 00:06:27;;;;;;;1.50;1.10;;;10.40;99.90;;;;;;5117227;28;20197;-59
2023/12/31 00:08:53;;;;;;;2.70;1.38;;;10.30;99.90;;;;;;5117109;28;20181;-59
2023/12/31 00:11:19;;;;;;;2.38;1.17;;;10.40;99.90;;;;;;5116899;28;20588;-60
2023/12/31 00:13:44;;;;;;;2.00;1.33;;;10.30;99.90;;;;;;5117000;28;20173;-60
2023/12/31 00:16:13;;;;;;;1.75;1.20;;;10.20;99.90;;;;;;5116977;28;20263;-59
2023/12/31 00:18:39;;;;;;;2.92;1.10;;;10.20;99.90;;;;;;5116879;28;20494;-59
2023/12/31 00:21:04;;;;;;;3.67;1.40;;;10.20;99.90;;;;;;5116937;28;20200;-59
2023/12/31 00:23:31;;;;;;;1.17;0.93;;;10.20;99.90;;;;;;5116465;28;20225;-59
2023/12/31 00:25:56;;;;;;;2.70;1.38;;;10.20;99.90;;;;;;5116861;28;20296;-60
2023/12/31 00:28:22;;;;;;;1.27;1.00;;;10.20;99.90;;;;;;5116972;28;20256;-59
2023/12/31 00:30:47;;;;;;;1.25;1.13;;;10.20;99.90;;;;;;5116744;28;20638;-59
2023/12/31 00:33:13;;;;;;;2.47;1.50;;;10.30;99.90;;;;;;5116675;28;20177;-60
2023/12/31 00:35:39;;;;;;;2.88;1.33;;;10.30;99.90;;;;;;5116680;28;20530;-59
2023/12/31 00:38:05;;;;;;;2.00;1.25;;;10.30;99.90;;;;;;5116591;28;20205;-59
2023/12/31 00:40:30;;;;;;;1.27;1.02;;;10.20;99.90;;;;;;5114913;28;20177;-59
2023/12/31 00:42:56;;;;;;;2.25;1.25;;;10.20;99.90;;;;;;5115114;28;20181;-59
2023/12/31 00:45:21;;;;;;;3.45;1.35;;;10.10;99.90;;;;;;5116029;28;20247;-59
2023/12/31 00:47:47;;;;;;;2.70;1.23;;;10.10;99.90;;;;;;5116460;28;20170;-59
2023/12/31 00:50:13;;;;;;;2.10;1.40;;;10.00;99.90;;;;;;5115990;28;20207;-60
2023/12/31 00:52:39;;;;;;;2.22;1.35;;;9.90;99.90;;;;;;5116211;28;20225;-60
2023/12/31 00:55:05;;;;;;;1.40;1.30;;;10.00;99.90;;;;;;5116247;28;20180;-59
2023/12/31 00:57:31;;;;;;;2.95;1.50;;;9.90;99.90;;;;;;5116161;28;20169;-59
2023/12/31 00:59:56;;;;;;;2.95;1.58;;;9.90;99.90;;;;;;5116095;28;20630;-59
2023/12/31 01:02:22;;;;;;;2.95;1.25;;;9.90;99.90;;;;;;5116052;28;20685;-59
2023/12/31 01:04:47;;;;;;;2.63;1.30;;;9.90;99.90;;;;;;5116041;28;20195;-59
2023/12/31 01:07:13;;;;;;;2.22;1.30;;;9.90;99.90;;;;;;5115652;28;20220;-60
2023/12/31 01:09:40;;;;;;;3.08;1.38;;;9.80;99.90;;;;;;5116003;28;20173;-59
2023/12/31 01:12:06;;;;;;;2.88;1.25;;;9.70;99.90;;;;;;5115871;28;20177;-59
2023/12/31 01:14:34;;;;;;;4.22;1.40;;;9.70;99.90;;;;;;5115861;28;20200;-59
2023/12/31 01:16:59;;;;;;;1.83;1.50;;;9.80;99.90;;;;;;5115483;28;20631;-59
2023/12/31 01:19:25;;;;;;;1.95;1.40;;;9.90;99.90;;;;;;5114712;28;20205;-59
2023/12/31 01:21:50;;;;;;;3.65;1.45;;;10.10;99.90;;;;;;5115456;28;20222;-59
2023/12/31 01:24:16;;;;;;;3.17;1.60;;;10.00;99.90;;;;;;5115791;28;20215;-59
2023/12/31 01:26:42;;;;;;;2.25;1.50;;;10.00;99.90;;;;;;5115550;28;20239;-59
2023/12/31 01:29:07;;;;;;;4.28;1.80;;;9.90;99.90;;;;;;5115575;28;20177;-59
2023/12/31 01:31:33;;;;;;;1.67;1.30;;;9.90;99.90;;;;;;5115502;28;20572;-59
2023/12/31 01:33:59;;;;;;;2.30;1.40;;;10.00;99.90;;;;;;5115715;28;20184;-59
2023/12/31 01:36:25;;;;;;;1.50;1.20;;;10.00;99.90;;;;;;5115388;28;20177;-60
2023/12/31 01:38:51;;;;;;;2.05;1.42;;;10.00;99.90;;;;;;5115361;28;20595;-59
2023/12/31 01:41:17;;;;;;;2.47;1.20;;;9.90;99.90;;;;;;5115074;28;20211;-60
2023/12/31 01:43:42;;;;;;;2.03;1.30;;;9.90;99.90;;;;;;5115540;28;20173;-59
2023/12/31 01:46:10;;;;;;;1.52;1.40;;;10.00;99.90;;;;;;5115156;28;20646;-59
2023/12/31 01:48:36;;;;;;;2.50;1.40;;;10.10;99.90;;;;;;5115175;28;20622;-60
2023/12/31 01:51:03;;;;;;;1.60;1.30;;;10.00;99.90;;;;;;5115231;28;20329;-60
2023/12/31 01:53:30;;;;;;;2.65;1.67;;;10.00;99.90;;;;;;5114655;28;20271;-59
2023/12/31 01:55:57;;;;;;;2.22;1.38;;;10.10;99.90;;;;;;5115016;28;20198;-60
2023/12/31 01:58:23;;;;;;;3.17;1.50;;;10.10;99.90;;;;;;5113809;28;20169;-60
2023/12/31 02:00:50;;;;;;;2.25;1.35;;;10.10;99.90;;;;;;5114954;28;20170;-59
2023/12/31 02:03:16;;;;;;;2.40;1.48;;;10.10;99.90;;;;;;5114596;28;20169;-60
2023/12/31 02:05:42;;;;;;;3.05;1.65;;;10.10;99.90;;;;;;5114492;28;20194;-60
2023/12/31 02:08:07;;;;;;;1.50;1.40;;;10.20;99.90;;;;;;5114692;28;20226;-60
2023/12/31 02:10:33;;;;;;;2.67;1.45;;;10.20;99.90;;;;;;5114789;28;20237;-60
2023/12/31 02:13:00;;;;;;;2.28;1.33;;;10.20;99.90;;;;;;5114679;28;20177;-60
2023/12/31 02:15:33;;;;;;;2.10;1.48;;;10.20;99.90;;;;;;5114716;28;20208;-59
2023/12/31 02:18:02;;;;;;;4.18;1.48;;;10.30;99.90;;;;;;5114247;28;20173;-59
2023/12/31 02:20:29;;;;;;;2.47;1.50;;;10.30;99.90;;;;;;5114878;28;20181;-59
2023/12/31 02:22:55;;;;;;;1.80;1.33;;;10.40;99.90;;;;;;5114425;28;20720;-59
2023/12/31 02:25:24;;;;;;;2.83;1.20;;;10.40;99.90;;;;;;5114472;28;20200;-60
2023/12/31 02:27:50;;;;;;;3.60;1.45;;;10.40;99.90;;;;;;5114483;28;20660;-60
2023/12/31 02:30:15;;;;;;;2.42;1.20;;;10.40;99.90;;;;;;5114759;28;20200;-59
2023/12/31 02:32:41;;;;;;;1.92;1.55;;;10.50;99.90;;;;;;5114398;28;20252;-59
2023/12/31 02:35:07;;;;;;;1.77;1.42;;;10.50;99.90;;;;;;5114327;28;20169;-59
2023/12/31 02:37:33;;;;;;;2.03;1.38;;;10.40;99.90;;;;;;5114235;28;20717;-59
2023/12/31 02:39:59;;;;;;;2.50;1.48;;;10.40;99.90;;;;;;5114307;28;20252;-60
2023/12/31 02:42:24;;;;;;;1.52;1.42;;;10.40;99.90;;;;;;5114632;28;20208;-60
2023/12/31 02:44:50;;;;;;;2.78;1.50;;;10.30;99.90;;;;;;5114248;28;20268;-60
2023/12/31 02:47:16;;;;;;;3.33;1.42;;;10.40;99.90;;;;;;5114119;28;20205;-59
2023/12/31 02:49:41;;;;;;;1.95;1.48;;;10.50;99.90;;;;;;5113901;28;20196;-59
2023/12/31 02:52:09;;;;;;;3.28;1.40;;;10.60;99.90;;;;;;5113935;28;20219;-60
2023/12/31 02:54:35;;;;;;;1.48;1.38;;;10.70;99.90;;;;;;5114082;28;20574;-59
2023/12/31 02:57:01;;;;;;;2.38;1.45;;;10.70;99.90;;;;;;5114049;28;20257;-60
2023/12/31 02:59:27;;;;;;;2.22;1.50;;;10.60;99.90;;;;;;5114067;28;20622;-60
2023/12/31 03:01:53;;;;;;;2.45;1.50;;;10.70;99.90;;;;;;5113790;28;20530;-60
2023/12/31 03:04:18;;;;;;;2.63;1.60;;;10.70;99.90;;;;;;5113959;28;20177;-60
2023/12/31 03:06:47;;;;;;;1.63;1.50;;;10.60;99.90;;;;;;5113004;28;20213;-59
2023/12/31 03:09:13;;;;;;;1.35;1.15;;;10.60;99.90;;;;;;5114079;28;20575;-60
2023/12/31 03:11:38;;;;;;;2.42;1.50;;;10.60;99.90;;;;;;5113657;28;20169;-60
2023/12/31 03:14:04;;;;;;;1.65;1.45;;;10.60;99.90;;;;;;5113625;28;20174;-59
2023/12/31 03:16:30;;;;;;;1.70;1.60;;;10.60;99.90;;;;;;5113848;28;20180;-59
2023/12/31 03:18:56;;;;;;;1.50;1.30;;;10.70;99.90;;;;;;5113872;28;20172;-59
2023/12/31 03:21:21;;;;;;;2.15;1.67;;;10.70;99.90;;;;;;5113509;28;20173;-59
2023/12/31 03:23:47;;;;;;;1.52;1.40;;;10.60;99.90;;;;;;5113335;28;20678;-59
2023/12/31 03:26:13;;;;;;;1.67;1.40;;;10.60;99.90;;;;;;5113862;28;20197;-59
2023/12/31 03:28:38;;;;;;;1.70;1.40;;;10.50;99.90;;;;;;5113744;28;20203;-59
2023/12/31 03:31:04;;;;;;;2.13;1.55;;;10.50;99.90;;;;;;5113731;28;20257;-59
2023/12/31 03:33:30;;;;;;;1.42;1.33;;;10.60;99.90;;;;;;5113707;28;20161;-59
2023/12/31 03:35:56;;;;;;;2.15;1.38;;;10.50;99.90;;;;;;5113628;28;20618;-60
2023/12/31 03:38:22;;;;;;;3.85;1.50;;;10.50;99.90;;;;;;5113699;28;20188;-59
2023/12/31 03:40:47;;;;;;;1.92;1.40;;;10.60;99.90;;;;;;5113626;28;20169;-60
2023/12/31 03:43:13;;;;;;;1.83;1.40;;;10.60;99.90;;;;;;5113668;28;20640;-59
2023/12/31 03:45:39;;;;;;;1.27;1.17;;;10.60;99.90;;;;;;5113554;28;20197;-59
2023/12/31 03:48:05;;;;;;;1.40;1.30;;;10.60;99.90;;;;;;5113601;28;20170;-59
2023/12/31 03:50:31;;;;;;;4.80;1.67;;;10.40;99.90;;;;;;5113213;28;20173;-59
2023/12/31 03:52:56;;;;;;;2.03;1.60;;;10.50;99.90;;;;;;5113463;28;20196;-59
2023/12/31 03:55:23;;;;;;;3.60;1.73;;;10.60;99.90;;;;;;5113591;28;20173;-60
2023/12/31 03:57:49;;;;;;;1.63;1.40;;;10.60;99.90;;;;;;5113403;28;20182;-60
2023/12/31 04:00:16;;;;;;;1.83;1.50;;;10.40;99.90;;;;;;5113526;28;20575;-60
2023/12/31 04:02:42;;;;;;;3.85;1.67;;;10.40;99.90;;;;;;5113424;28;20181;-60
2023/12/31 04:05:08;;;;;;;2.58;1.45;;;10.40;99.90;;;;;;5113443;28;20232;-59
2023/12/31 04:07:33;;;;;;;1.35;1.10;;;10.40;99.90;;;;;;5113037;28;20288;-59
2023/12/31 04:10:00;;;;;;;2.03;1.48;;;10.50;99.90;;;;;;5113335;28;20253;-59
2023/12/31 04:12:26;;;;;;;1.50;1.40;;;10.50;99.90;;;;;;5113371;28;20199;-60
2023/12/31 04:14:52;;;;;;;1.40;1.30;;;10.50;99.90;;;;;;5112084;28;20169;-59
2023/12/31 04:17:18;;;;;;;2.80;1.48;;;10.40;99.90;;;;;;5114551;28;20638;-60
2023/12/31 04:19:44;;;;;;;1.50;1.40;;;10.50;99.90;;;;;;5116952;28;20212;-59
2023/12/31 04:22:10;;;;;;;2.22;1.70;;;10.50;99.90;;;;;;5116802;28;20255;-60
2023/12/31 04:24:35;;;;;;;1.92;1.73;;;10.60;99.90;;;;;;5116881;28;20209;-59
2023/12/31 04:27:01;;;;;;;1.88;1.48;;;10.60;99.90;;;;;;5116783;28;20231;-59
2023/12/31 04:29:27;;;;;;;1.40;1.30;;;10.60;99.90;;;;;;5116750;28;20173;-60
2023/12/31 04:31:52;;;;;;;2.47;1.55;;;10.50;99.90;;;;;;5116723;28;20196;-59
2023/12/31 04:34:18;;;;;;;2.15;1.45;;;10.40;99.90;;;;;;5116717;28;20211;-59
2023/12/31 04:36:44;;;;;;;1.48;1.20;;;10.50;99.90;;;;;;5116572;28;20660;-59
2023/12/31 04:39:11;;;;;;;1.70;1.48;;;10.40;99.90;;;;;;5116580;28;20225;-60
2023/12/31 04:41:37;;;;;;;2.65;1.80;;;10.40;99.90;;;;;;5116351;28;20169;-60
2023/12/31 04:44:02;;;;;;;2.30;1.70;;;10.40;99.90;;;;;;5116502;28;20181;-60
2023/12/31 04:46:28;;;;;;;2.80;1.60;;;10.40;99.90;;;;;;5116532;28;20239;-59
2023/12/31 04:48:54;;;;;;;1.70;1.60;;;10.50;99.90;;;;;;5116051;28;20305;-60
2023/12/31 04:51:27;;;;;;;3.53;1.70;;;10.50;99.90;;;;;;5116184;28;20264;-60
2023/12/31 04:53:54;;;;;;;2.38;1.70;;;10.40;99.90;;;;;;5116283;28;20254;-59
2023/12/31 04:56:21;;;;;;;2.47;2.03;;;10.30;99.90;;;;;;5116429;28;20644;-59
2023/12/31 04:58:55;;;;;;;1.70;1.60;;;10.40;99.90;;;;;;5116212;28;20236;-59
2023/12/31 05:01:20;;;;;;;2.40;1.67;;;10.40;99.90;;;;;;5116126;28;20275;-59
2023/12/31 05:03:47;;;;;;;2.40;1.80;;;10.30;99.90;;;;;;5115802;28;20255;-60
2023/12/31 05:06:13;;;;;;;2.28;1.90;;;10.30;99.90;;;;;;5115765;28;20603;-59
2023/12/31 05:08:43;;;;;;;2.03;1.75;;;10.30;99.90;;;;;;5115923;28;20165;-59
2023/12/31 05:11:10;;;;;;;1.95;1.60;;;10.30;99.90;;;;;;5115654;28;20184;-59
2023/12/31 05:13:36;;;;;;;3.92;1.92;;;10.40;99.90;;;;;;5115606;28;20182;-59
2023/12/31 05:16:02;;;;;;;2.15;1.95;;;10.50;99.90;;;;;;5115509;28;20181;-59
2023/12/31 05:18:28;;;;;;;2.88;1.65;;;10.50;99.90;;;;;;5115461;28;20671;-60
2023/12/31 05:20:54;;;;;;;1.63;1.52;;;10.60;99.90;;;;;;5115760;28;20173;-60
2023/12/31 05:23:19;;;;;;;1.98;1.70;;;10.60;99.90;;;;;;5115668;28;20221;-59
2023/12/31 05:25:45;;;;;;;1.65;1.55;;;10.50;99.90;;;;;;5115535;28;20337;-59
2023/12/31 05:28:11;;;;;;;1.83;1.65;;;10.40;99.90;;;;;;5115076;28;20185;-59
2023/12/31 05:30:41;;;;;;;1.73;1.48;;;10.40;99.90;;;;;;5115144;28;20170;-60
2023/12/31 05:33:07;;;;;;;2.80;1.98;;;10.40;99.90;;;;;;5115423;27;20188;-60
2023/12/31 05:35:32;;;;;;;2.72;1.80;;;10.50;99.90;;;;;;5115550;28;20522;-60
2023/12/31 05:37:58;;;;;;;2.17;1.88;;;10.50;99.90;;;;;;5115395;28;20169;-60
2023/12/31 05:40:24;;;;;;;3.40;1.95;;;10.50;99.90;;;;;;5115272;28;20180;-60
2023/12/31 05:42:49;;;;;;;1.70;1.60;;;10.60;99.90;;;;;;5115326;28;20177;-59
2023/12/31 05:45:16;;;;;;;1.70;1.60;;;10.60;99.90;;;;;;5113981;28;20186;-59
2023/12/31 05:47:41;;;;;;;2.22;1.95;;;10.60;99.90;;;;;;5115207;28;20303;-59
2023/12/31 05:50:08;;;;;;;2.60;1.80;;;10.50;99.90;;;;;;5113819;28;20273;-60
2023/12/31 05:52:33;;;;;;;1.77;1.60;;;10.60;99.90;;;;;;5113799;28;20495;-60
2023/12/31 05:54:59;;;;;;;3.00;1.55;;;10.60;99.90;;;;;;5115097;28;20219;-60
2023/12/31 05:57:25;;;;;;;1.70;1.60;;;10.60;99.90;;;;;;5115071;28;20177;-60
2023/12/31 05:59:51;;;;;;;1.50;1.40;;;10.60;99.90;;;;;;5115065;28;20177;-59
2023/12/31 06:02:16;;;;;;;1.85;1.50;;;10.70;99.90;;;;;;5114949;28;20169;-59
2023/12/31 06:04:42;;;;;;;1.77;1.50;;;10.70;99.90;;;;;;5114874;28;20254;-59
2023/12/31 06:07:07;;;;;;;3.92;1.92;;;10.70;99.90;;;;;;5114751;28;20201;-59
2023/12/31 06:09:33;;;;;;;1.50;1.40;;;10.60;99.90;;;;;;5114805;28;20177;-60
2023/12/31 06:11:59;;;;;;;2.22;1.70;;;10.60;99.90;;;;;;5114749;28;20182;-60
2023/12/31 06:14:24;;;;;;;1.90;1.45;;;10.70;99.90;;;;;;5114729;28;20177;-60
2023/12/31 06:16:50;;;;;;;1.60;1.50;;;10.70;99.90;;;;;;5114797;28;20176;-60
2023/12/31 06:19:16;;;;;;;4.68;1.70;;;10.80;99.90;;;;;;5114558;28;20184;-59
2023/12/31 06:21:41;;;;;;;2.13;1.40;;;10.70;99.90;;;;;;5114393;28;20173;-59
2023/12/31 06:24:07;;;;;;;2.45;1.40;;;10.70;99.90;;;;;;5114527;28;20176;-59
2023/12/31 06:26:34;;;;;;;1.80;1.58;;;10.80;99.90;;;;;;5113968;28;20266;-59
2023/12/31 06:28:59;;;;;;;1.80;1.50;;;10.70;99.90;;;;;;5114479;28;20174;-59
2023/12/31 06:31:25;;;;;;;1.60;1.33;;;10.80;99.90;;;;;;5114463;28;20690;-60
2023/12/31 06:33:51;;;;;;;1.58;1.48;;;10.80;99.90;;;;;;5114387;28;20252;-60
2023/12/31 06:36:17;;;;;;;1.40;1.30;;;10.80;99.90;;;;;;5114298;28;20216;-60
2023/12/31 06:38:43;;;;;;;2.03;1.58;;;10.80;99.90;;;;;;5114379;28;20204;-60
2023/12/31 06:41:09;;;;;;;1.75;1.58;;;10.80;99.90;;;;;;5113867;28;20538;-60
2023/12/31 06:43:35;;;;;;;1.73;1.40;;;10.80;99.90;;;;;;5114152;28;20252;-59
2023/12/31 06:46:02;;;;;;;2.00;1.52;;;10.80;99.90;;;;;;5114165;28;20233;-60
2023/12/31 06:48:28;;;;;;;1.63;1.52;;;10.80;99.90;;;;;;5114123;28;20184;-60
2023/12/31 06:50:53;;;;;;;1.70;1.50;;;10.70;99.90;;;;;;5113808;28;20181;-60
2023/12/31 06:53:19;;;;;;;1.75;1.60;;;10.80;99.90;;;;;;5114265;28;20180;-60
2023/12/31 06:55:45;;;;;;;1.50;1.40;;;10.70;99.90;;;;;;5113170;28;20184;-60
2023/12/31 06:58:12;;;;;;;2.42;1.80;;;10.70;99.90;;;;;;5113542;28;20190;-60
2023/12/31 07:00:37;;;;;;;2.85;1.55;;;10.60;99.90;;;;;;5113522;28;20213;-59
2023/12/31 07:03:03;;;;;;;1.50;1.38;;;10.60;99.90;;;;;;5113439;28;20264;-60
2023/12/31 07:05:29;;;;;;;1.30;1.20;;;10.70;99.90;;;;;;5113435;28;20269;-60
2023/12/31 07:07:54;;;;;;;1.75;1.42;;;10.70;99.90;;;;;;5110672;28;20173;-59
2023/12/31 07:10:21;;;;;;;1.83;1.67;;;10.70;99.90;;;;;;5112586;28;20169;-60
2023/12/31 07:12:47;;;;;;;2.33;1.65;;;10.70;99.90;;;;;;5113673;28;20252;-60
2023/12/31 07:15:13;;;;;;;1.75;1.60;;;10.80;99.90;;;;;;5113081;28;20578;-60
2023/12/31 07:17:39;;;;;;;1.50;1.40;;;10.80;99.90;;;;;;5113303;28;20184;-59
2023/12/31 07:20:05;;;;;;;3.05;1.55;;;10.80;99.90;;;;;;5113220;28;20165;-60
2023/12/31 07:22:31;;;;;;;2.00;1.60;;;10.70;99.90;;;;;;5113716;28;20323;-60
2023/12/31 07:24:58;;;;;;;2.17;1.40;;;10.70;99.90;;;;;;5112811;28;20649;-60
2023/12/31 07:27:24;;;;;;;1.75;1.63;;;10.70;99.90;;;;;;5110504;28;20689;-59
2023/12/31 07:29:50;;;;;;;2.40;1.38;;;10.70;99.90;;;;;;5113323;28;20199;-60
2023/12/31 07:32:15;;;;;;;1.45;1.35;;;10.80;99.90;;;;;;5112539;28;20173;-60
2023/12/31 07:34:41;;;;;;;1.40;1.30;;;10.70;99.90;;;;;;5110604;28;20169;-59
2023/12/31 07:37:06;;;;;;;1.73;1.60;;;10.50;99.90;;;;;;5111190;28;20182;-60
2023/12/31 07:39:32;;;;;;;1.60;1.50;;;10.60;99.90;;;;;;5112899;28;20174;-60
2023/12/31 07:41:58;;;;;;;2.83;1.40;;;10.50;99.90;;;;;;5112655;28;20170;-61
2023/12/31 07:44:24;;;;;;;2.38;1.70;;;10.40;99.90;;;;;;5112733;28;20173;-60
2023/12/31 07:46:50;;;;;;;1.65;1.55;;;10.30;99.90;;;;;;5112386;28;20723;-60
2023/12/31 07:49:15;;;;;;;1.48;1.38;;;10.20;99.90;;;;;;5112733;28;20177;-60
2023/12/31 07:51:41;;;;;;;1.60;1.30;;;10.20;99.90;;;;;;5111974;28;20175;-60
2023/12/31 07:54:07;;;;;;;1.33;1.20;;;10.00;99.90;;;;;;5113683;28;20315;-60
2023/12/31 07:56:32;;;;;;;2.28;1.40;;;10.00;99.90;;;;;;5116019;28;20177;-61
2023/12/31 07:58:58;;;;;;;3.33;1.42;;;9.90;99.90;;;;;;5098021;28;20184;-60
2023/12/31 08:01:24;;;;;;;1.77;1.40;;;9.80;99.90;;;;;;5116492;28;20192;-61
2023/12/31 08:03:50;;;;;;;2.60;1.20;;;9.70;99.90;;;;;;5116133;28;20250;-60
2023/12/31 08:06:16;;;;;;;1.35;1.25;;;9.70;99.90;;;;;;5113241;28;20201;-60
2023/12/31 08:08:42;;;;;;;2.65;1.33;;;9.80;99.90;;;;;;5116227;28;20180;-60
2023/12/31 08:11:07;;;;;;;1.20;1.10;;;9.80;99.90;;;;;;5116328;28;20277;-59
2023/12/31 08:13:34;;;;;;;1.42;1.33;;;9.70;99.90;;;;;;5116117;28;20581;-60
2023/12/31 08:16:00;;;;;;;2.47;0.90;;;9.70;99.90;;;;;;5115751;28;20184;-60
2023/12/31 08:18:26;;;;;;;1.10;1.00;;;9.70;99.90;;;;;;5116475;28;20192;-60
2023/12/31 08:20:52;;;;;;;1.92;1.10;;;9.70;99.90;;;;;;5116114;28;20173;-60
2023/12/31 08:23:19;;;;;;;1.30;0.98;;;9.60;99.90;;;;;;5115954;28;20216;-60
2023/12/31 08:25:44;;;;;;;1.92;0.98;;;9.50;99.90;;;;;;5115932;28;20682;-60
2023/12/31 08:28:10;;;;;;;2.72;0.90;;;9.60;99.90;;;;;;5115763;28;20230;-59
2023/12/31 08:30:36;;;;;;;0.95;0.80;;;9.50;99.90;;;;;;5116177;28;20256;-59
2023/12/31 08:33:01;;;;;;;0.85;0.85;;;9.40;99.90;;;;;;5115889;28;20169;-59
2023/12/31 08:35:27;;;;;;;1.27;0.90;;;9.40;99.90;;;;;;5115892;28;20526;-60
2023/12/31 08:37:53;;;;;;;3.22;1.00;;;9.40;99.90;;;;;;5115464;28;20173;-60
2023/12/31 08:40:21;;;;;;;1.73;1.00;;;9.40;99.90;;;;;;5115353;28;20181;-59
2023/12/31 08:42:47;;;;;;;0.93;0.90;;;9.50;99.90;;;;;;5114401;28;20177;-59
2023/12/31 08:45:13;;;;;;;1.00;0.80;;;9.50;99.90;;;;;;5115751;28;20192;-60
2023/12/31 08:47:39;;;;;;;1.42;1.00;;;9.40;99.90;;;;;;5115569;28;20223;-59
2023/12/31 08:50:09;;;;;;;1.15;1.00;;;9.50;99.90;;;;;;5115206;28;20262;-60
2023/12/31 08:52:40;;;;;;;2.88;1.15;;;9.50;99.90;;;;;;5115563;28;20173;-60
2023/12/31 08:55:09;;;;;;;1.80;1.27;;;9.50;99.90;;;;;;5115188;28;20158;-59
2023/12/31 08:57:35;;;;;;;3.03;1.02;;;9.60;99.90;;;;;;5115216;28;20533;-60
2023/12/31 09:00:02;;;;;;;3.13;0.90;;;9.70;99.90;;;;;;5115621;28;20199;-58
2023/12/31 09:02:28;;;;;;;2.28;1.00;;;9.80;99.90;;;;;;5115361;28;20256;-58
2023/12/31 09:04:54;;;;;;;1.58;0.95;;;9.80;99.90;;;;;;5113935;27;20264;-59
2023/12/31 09:07:20;;;;;;;1.40;0.98;;;9.80;99.90;;;;;;5115076;28;20231;-58
2023/12/31 09:09:45;;;;;;;1.58;0.90;;;9.80;99.90;;;;;;5114675;28;20625;-58
2023/12/31 09:12:11;;;;;;;1.40;1.13;;;9.90;99.90;;;;;;5115075;28;20234;-58
2023/12/31 09:14:37;;;;;;;2.10;0.90;;;9.90;99.90;;;;;;5115355;28;20265;-58
2023/12/31 09:17:02;;;;;;;1.92;0.70;;;10.00;99.90;;;;;;5114645;28;20205;-58
2023/12/31 09:19:28;;;;;;;1.95;1.00;;;9.90;99.90;;;;;;5114942;28;20183;-58
2023/12/31 09:21:53;;;;;;;1.23;0.70;;;9.90;99.90;;;;;;5114740;28;20225;-58
2023/12/31 09:24:19;;;;;;;1.42;0.80;;;9.90;99.90;;;;;;5114614;28;20226;-58
2023/12/31 09:26:45;;;;;;;3.13;0.80;;;9.90;99.90;;;;;;5114748;28;20226;-58
2023/12/31 09:29:10;;;;;;;1.52;0.70;;;10.00;99.90;;;;;;5114802;28;20196;-58
2023/12/31 09:31:37;;;;;;;1.27;0.70;;;10.10;99.90;;;;;;5114732;28;20169;-58
2023/12/31 09:34:03;;;;;;;4.40;0.77;;;10.10;99.90;;;;;;5114599;28;20182;-58
2023/12/31 09:36:28;;;;;;;1.40;0.75;;;10.10;99.90;;;;;;5114746;28;20177;-58
2023/12/31 09:38:54;;;;;;;1.67;0.70;;;10.10;99.90;;;;;;5114434;28;20658;-58
2023/12/31 09:41:24;;;;;;;1.65;0.70;;;10.10;99.90;;;;;;5114556;28;20230;-58
2023/12/31 09:43:54;;;;;;;3.55;0.82;;;10.10;99.90;;;;;;5114532;28;20709;-59
2023/12/31 09:46:22;;;;;;;1.80;0.85;;;10.10;99.90;;;;;;5114426;28;20215;-58
2023/12/31 09:48:51;;;;;;;1.45;0.80;;;10.20;99.90;;;;;;5114475;28;20256;-58
2023/12/31 09:51:18;;;;;;;2.25;1.02;;;10.20;99.90;;;;;;5114456;28;20179;-58
2023/12/31 09:53:45;;;;;;;4.32;0.90;;;10.10;99.90;;;;;;5114296;28;20177;-58
2023/12/31 09:56:12;;;;;;;1.27;0.75;;;10.10;99.90;;;;;;5114277;28;20169;-59
2023/12/31 09:58:38;;;;;;;3.55;0.85;;;10.00;99.90;;;;;;5114215;28;20196;-59
2023/12/31 10:01:04;;;;;;;2.00;1.08;;;9.80;99.90;;;;;;5114171;28;20173;-60
2023/12/31 10:03:30;;;;;;;1.90;0.70;;;9.80;99.90;;;;;;5114125;28;20547;-59
2023/12/31 10:05:56;;;;;;;2.85;1.00;;;9.80;99.90;;;;;;5113999;28;20300;-60
2023/12/31 10:08:24;;;;;;;1.40;0.88;;;9.80;99.90;;;;;;5113827;28;20503;-59
2023/12/31 10:10:53;;;;;;;1.52;0.90;;;9.80;99.90;;;;;;5113972;28;20173;-59
2023/12/31 10:13:19;;;;;;;2.30;0.80;;;9.80;99.90;;;;;;5112600;28;20215;-60
2023/12/31 10:15:45;;;;;;;2.03;0.98;;;9.90;99.90;;;;;;5113516;28;20165;-59
2023/12/31 10:18:11;;;;;;;3.08;0.90;;;9.80;99.90;;;;;;5113997;28;20674;-59
2023/12/31 10:20:38;;;;;;;1.45;0.70;;;9.80;99.90;;;;;;5113385;28;20188;-59
2023/12/31 10:23:04;;;;;;;0.85;0.50;;;9.90;99.90;;;;;;5111345;28;20573;-60
2023/12/31 10:25:30;;;;;;;1.27;0.70;;;9.90;99.90;;;;;;5113861;28;20704;-59
2023/12/31 10:27:56;;;;;;;0.98;0.32;;;9.80;99.90;;;;;;5113336;28;20200;-59
2023/12/31 10:30:22;;;;;;;1.33;0.60;;;9.70;99.90;;;;;;5112600;28;20181;-60
2023/12/31 10:32:49;;;;;;;0.98;0.70;;;9.80;99.90;;;;;;5113613;28;20188;-59
2023/12/31 10:35:20;;;;;;;1.60;0.60;;;9.80;99.90;;;;;;5113506;28;20568;-59
2023/12/31 10:37:46;;;;;;;2.58;0.60;;;9.80;99.90;;;;;;5113633;28;20165;-59
2023/12/31 10:40:19;;;;;;;2.25;0.60;;;9.70;99.90;;;;;;5113480;28;20181;-58
2023/12/31 10:42:50;;;;;;;0.68;0.45;;;9.80;99.90;;;;;;5113103;28;20710;-58
2023/12/31 10:45:20;;;;;;;3.17;0.70;;;9.80;99.90;;;;;;5113361;28;20199;-58
2023/12/31 10:47:53;;;;;;;1.45;0.93;;;9.90;99.90;;;;;;5113347;28;20205;-58
2023/12/31 10:50:25;;;;;;;1.98;0.82;;;10.00;99.90;;;;;;5113338;28;20180;-58
2023/12/31 10:52:53;;;;;;;1.42;0.50;;;9.80;99.90;;;;;;5113025;28;20217;-58
2023/12/31 10:55:20;;;;;;;2.45;0.80;;;9.70;99.90;;;;;;5113244;28;20265;-59
2023/12/31 10:57:48;;;;;;;1.05;0.70;;;9.70;99.90;;;;;;5113211;28;20359;-59
2023/12/31 11:00:15;;;;;;;1.60;0.80;;;9.70;99.90;;;;;;5112961;28;20260;-59
2023/12/31 11:02:44;;;;;;;3.33;1.10;;;9.80;99.90;;;;;;5113221;27;20173;-58
2023/12/31 11:05:12;;;;;;;2.60;0.90;;;9.80;99.90;;;;;;5113213;28;20212;-59
2023/12/31 11:07:40;;;;;;;3.58;1.08;;;9.80;99.90;;;;;;5113074;28;20225;-59
2023/12/31 11:10:08;;;;;;;3.30;1.38;;;9.80;99.90;;;;;;5113033;28;20205;-58
2023/12/31 11:12:34;;;;;;;5.32;1.27;;;9.70;99.90;;;;;;5112988;28;20185;-58
2023/12/31 11:15:13;;;;;;;4.95;1.27;;;9.70;99.90;;;;;;5113015;28;20173;-58
2023/12/31 11:17:48;;;;;;;3.65;1.10;;;9.70;99.90;;;;;;5111798;28;20522;-58
2023/12/31 11:20:26;;;;;;;3.90;1.35;;;9.80;99.90;;;;;;5112931;28;20169;-58
2023/12/31 11:23:19;;;;;;;4.30;1.27;;;9.80;99.90;;;;;;5112975;28;20220;-58
2023/12/31 11:25:45;;;;;;;5.80;1.50;;;10.00;99.90;;;;;;5112851;28;20168;-59
2023/12/31 11:28:11;;;;;;;5.82;1.70;;;10.00;99.90;;;;;;5116040;28;20249;-59
2023/12/31 11:30:49;;;;;;;4.38;1.40;;;10.10;99.90;;;;;;5117152;28;20638;-59
2023/12/31 11:33:16;;;;;;;6.68;1.40;;;10.30;99.90;;;;;;5117032;28;20202;-59
2023/12/31 11:35:44;;;;;;;4.63;1.60;;;10.30;99.90;;;;;;5116968;28;20210;-60
2023/12/31 11:38:10;;;;;;;2.50;1.40;;;10.30;99.90;;;;;;5117040;28;20173;-59
2023/12/31 11:40:36;;;;;;;5.28;1.80;;;10.40;99.90;;;;;;5116715;27;20228;-59
2023/12/31 11:43:16;;;;;;;3.05;1.33;;;10.50;99.90;;;;;;5116708;28;20279;-59
2023/12/31 11:45:45;;;;;;;5.28;1.88;;;10.40;99.90;;;;;;5116309;28;20169;-59
2023/12/31 11:48:20;;;;;;;4.72;1.42;;;10.40;99.90;;;;;;5116584;28;20197;-59
2023/12/31 11:50:52;;;;;;;7.47;1.50;;;10.40;99.90;;;;;;5116709;28;20585;-59
2023/12/31 11:53:21;;;;;;;3.28;1.10;;;10.30;99.90;;;;;;5116616;27;20276;-58
2023/12/31 11:55:53;;;;;;;3.35;1.05;;;10.30;99.90;;;;;;5116627;28;20523;-59
2023/12/31 11:58:21;;;;;;;3.55;1.15;;;10.30;99.90;;;;;;5116441;28;20170;-59
2023/12/31 12:00:47;;;;;;;3.78;1.33;;;10.20;99.90;;;;;;5116416;28;20185;-59
2023/12/31 12:03:16;;;;;;;3.88;1.52;;;10.20;99.90;;;;;;5116426;28;20268;-59
2023/12/31 12:05:43;;;;;;;3.45;1.27;;;10.20;99.90;;;;;;5116279;28;20264;-59
2023/12/31 12:08:10;;;;;;;4.25;1.60;;;10.30;99.90;;;;;;5116101;28;20174;-59
2023/12/31 12:10:36;;;;;;;5.03;1.73;;;10.20;99.90;;;;;;5116363;28;20177;-59
2023/12/31 12:13:03;;;;;;;4.22;1.60;;;10.30;99.90;;;;;;5116274;28;20194;-59
2023/12/31 12:15:38;;;;;;;4.80;1.60;;;10.40;99.90;;;;;;5116148;28;20252;-59
2023/12/31 12:18:21;;;;;;;5.38;1.58;;;10.60;99.90;;;;;;5116024;28;20172;-59
2023/12/31 12:20:47;;;;;;;4.32;1.48;;;10.70;99.90;;;;;;5115867;28;20177;-59
2023/12/31 12:23:18;;;;;;;4.60;1.55;;;10.70;99.90;;;;;;5115800;28;20225;-59
2023/12/31 12:25:44;;;;;;;4.68;1.23;;;10.50;99.90;;;;;;5115189;28;20203;-59
2023/12/31 12:28:10;;;;;;;5.28;1.40;;;10.30;99.90;;;;;;5115523;28;20575;-59
2023/12/31 12:30:39;;;;;;;5.22;1.83;;;10.40;99.90;;;;;;5115662;28;20252;-59
2023/12/31 12:33:06;;;;;;;5.90;1.73;;;10.50;99.90;;;;;;5115832;27;20178;-59
2023/12/31 12:35:32;;;;;;;5.63;1.95;;;10.40;99.90;;;;;;5115821;28;20258;-59
2023/12/31 12:37:57;;;;;;;5.78;1.88;;;10.40;99.90;;;;;;5115421;28;20202;-59
2023/12/31 12:40:23;;;;;;;6.28;1.85;;;10.40;99.90;;;;;;5115380;28;20643;-59
2023/12/31 12:42:49;;;;;;;6.70;1.52;;;10.40;99.90;;;;;;5115333;28;20177;-59
2023/12/31 12:45:18;;;;;;;5.30;1.95;;;10.40;99.90;;;;;;5115621;28;20223;-59
2023/12/31 12:47:45;;;;;;;5.13;1.83;;;10.50;99.90;;;;;;5115437;28;20247;-59